Time;durP1;ratioP1;P1;durP2;ratioP2;P2;SDS_P1;SDS_P2;PMS_P1;PMS_P2;Temp;Humidity;BMP_temperature;BMP_pressure;BME280_temperature;BME280_humidity;BME280_pressure;Samples;Min_cycle;Max_cycle;Signal;HPM_P1;HPM_P2
2023/02/04 00:08:25;;;;;;;9.70;5.40;;;;;;;8.19;100.00;101717.22;20769918;28;20564;-75
2023/02/04 00:18:26;;;;;;;8.82;5.20;;;;;;;8.18;100.00;101719.78;20769094;28;20131;-75
2023/02/04 00:28:28;;;;;;;7.85;4.28;;;;;;;8.16;100.00;101727.63;20767860;28;20494;-76
2023/02/04 00:38:29;;;;;;;9.45;5.03;;;;;;;8.18;100.00;101732.84;20837521;28;20710;-74
2023/02/04 00:48:30;;;;;;;9.45;4.55;;;;;;;8.16;100.00;101745.00;20852054;28;20457;-74
2023/02/04 01:08:49;;;;;;;8.68;5.13;;;;;;;7.96;100.00;101740.34;13381665;26;20040;-82
2023/02/04 01:18:50;;;;;;;10.50;5.78;;;;;;;7.91;100.00;101744.59;20889242;28;20127;-81
2023/02/04 01:28:51;;;;;;;11.60;6.22;;;;;;;7.85;100.00;101757.50;20893347;28;20087;-81
2023/02/04 01:38:53;;;;;;;11.20;6.38;;;;;;;7.85;100.00;101757.50;20892477;28;20045;-81
2023/02/04 01:48:54;;;;;;;12.65;7.70;;;;;;;7.88;100.00;101775.84;20827623;28;20117;-81
2023/02/04 01:58:55;;;;;;;16.42;8.95;;;;;;;7.58;100.00;101790.94;20863396;28;20048;-81
2023/02/04 02:08:57;;;;;;;16.05;9.65;;;;;;;7.50;100.00;101795.13;20877720;28;20053;-81
2023/02/04 02:18:58;;;;;;;14.68;9.18;;;;;;;7.49;100.00;101788.16;20890770;28;20053;-81
2023/02/04 02:29:00;;;;;;;14.05;8.45;;;;;;;7.44;100.00;101807.19;20888254;28;20049;-82
2023/02/04 02:39:01;;;;;;;15.38;8.65;;;;;;;7.45;100.00;101824.56;20921537;28;20049;-82
2023/02/04 02:49:02;;;;;;;15.50;8.55;;;;;;;7.43;100.00;101821.06;20884284;28;20049;-82
2023/02/04 02:59:04;;;;;;;12.55;4.88;;;;;;;7.41;100.00;101827.94;20888185;28;20417;-82
2023/02/04 03:09:05;;;;;;;7.93;3.65;;;;;;;7.29;100.00;101845.97;20902020;28;20041;-82
2023/02/04 03:19:06;;;;;;;11.43;3.60;;;;;;;7.11;100.00;101843.84;20905422;28;20127;-82
2023/02/04 03:29:08;;;;;;;13.77;4.00;;;;;;;7.04;100.00;101846.25;20873564;28;20500;-82
2023/02/04 03:39:09;;;;;;;21.13;7.20;;;;;;;6.99;100.00;101863.50;20883508;28;20462;-82
2023/02/04 03:49:12;;;;;;;14.85;4.60;;;;;;;7.00;100.00;101888.72;20719608;22;20054;-75
2023/02/04 03:59:13;;;;;;;13.25;3.90;;;;;;;7.01;100.00;101895.69;20689824;28;20089;-73
2023/02/04 04:09:15;;;;;;;11.93;4.88;;;;;;;6.87;100.00;101909.25;20691317;28;20096;-75
2023/02/04 04:19:16;;;;;;;15.63;4.50;;;;;;;6.83;100.00;101910.03;20693529;28;20061;-74
2023/02/04 04:29:17;;;;;;;13.50;3.63;;;;;;;6.82;100.00;101907.41;20691030;28;20442;-76
2023/02/04 04:39:18;;;;;;;9.65;2.75;;;;;;;6.72;100.00;101911.50;20687222;28;20046;-75
2023/02/04 04:49:20;;;;;;;12.05;2.80;;;;;;;6.68;100.00;101927.88;20679755;28;20113;-76
2023/02/04 04:59:21;;;;;;;7.32;2.40;;;;;;;6.61;100.00;101907.75;20684505;28;20046;-76
2023/02/04 05:09:22;;;;;;;12.63;3.17;;;;;;;6.57;100.00;101917.22;20688421;28;20101;-74
2023/02/04 05:19:23;;;;;;;11.25;2.67;;;;;;;6.51;100.00;101913.56;20685627;28;20054;-73
2023/02/04 05:29:25;;;;;;;8.45;2.17;;;;;;;6.52;100.00;101928.34;20688445;28;20050;-75
2023/02/04 05:39:26;;;;;;;11.88;2.45;;;;;;;6.55;100.00;101931.03;20682534;28;20120;-75
2023/02/04 05:49:27;;;;;;;9.65;2.45;;;;;;;6.42;100.00;101933.31;20686700;28;20089;-76
2023/02/04 05:59:28;;;;;;;9.65;2.00;;;;;;;6.37;100.00;101945.34;20684275;28;20093;-75
2023/02/04 06:09:29;;;;;;;9.10;2.55;;;;;;;6.42;100.00;101964.53;20686577;28;20062;-76
2023/02/04 06:19:31;;;;;;;8.50;2.60;;;;;;;6.40;100.00;101976.63;20700156;28;20069;-77
2023/02/04 06:29:32;;;;;;;12.48;2.33;;;;;;;6.33;100.00;101995.53;20699211;28;20089;-77
2023/02/04 06:39:33;;;;;;;11.52;2.50;;;;;;;6.32;100.00;102004.13;20697066;28;20524;-76
2023/02/04 06:49:34;;;;;;;6.88;2.47;;;;;;;6.28;100.00;102002.31;20695067;28;20097;-76
2023/02/04 06:59:36;;;;;;;8.18;2.50;;;;;;;6.29;100.00;102018.81;20696615;28;20293;-77
2023/02/04 07:09:39;;;;;;;12.55;4.15;;;;;;;6.19;100.00;102016.78;20694977;28;20078;-76
2023/02/04 07:19:40;;;;;;;14.13;3.75;;;;;;;6.27;100.00;102052.56;20696015;28;20061;-76
2023/02/04 07:29:41;;;;;;;7.97;2.80;;;;;;;6.32;100.00;102056.16;20696952;28;20053;-76
2023/02/04 07:39:43;;;;;;;10.27;2.33;;;;;;;6.37;100.00;102067.59;20694074;28;20050;-75
2023/02/04 07:49:44;;;;;;;9.85;3.78;;;;;;;6.47;100.00;102076.56;20692134;28;20108;-77
2023/02/04 07:59:45;;;;;;;8.23;3.33;;;;;;;6.59;100.00;102096.81;20698190;28;20080;-74
2023/02/04 08:09:46;;;;;;;8.00;3.15;;;;;;;6.60;100.00;102115.06;20683740;28;20065;-74
2023/02/04 08:19:47;;;;;;;10.75;3.72;;;;;;;6.68;100.00;102133.50;20691011;28;20091;-74
2023/02/04 08:29:49;;;;;;;14.52;5.32;;;;;;;6.79;100.00;102136.41;20655584;28;20054;-74
2023/02/04 08:39:50;;;;;;;8.20;3.47;;;;;;;6.87;100.00;102134.91;20648159;28;20096;-74
2023/02/04 08:49:51;;;;;;;14.95;3.83;;;;;;;7.04;100.00;102148.34;20648864;28;20045;-75
2023/02/04 08:59:52;;;;;;;15.95;4.32;;;;;;;7.17;100.00;102160.88;20646883;28;20089;-75
2023/02/04 09:09:54;;;;;;;13.02;4.50;;;;;;;7.36;100.00;102170.94;20672157;28;20077;-73
2023/02/04 09:19:55;;;;;;;16.85;4.45;;;;;;;7.59;100.00;102178.47;20685690;28;20465;-73
2023/02/04 09:29:56;;;;;;;14.18;4.15;;;;;;;7.75;100.00;102182.31;20688676;28;20126;-73
2023/02/04 09:39:57;;;;;;;13.98;3.53;;;;;;;7.64;100.00;102180.34;20685150;28;20144;-72
2023/02/04 09:49:59;;;;;;;17.92;4.68;;;;;;;7.84;100.00;102193.84;20697457;28;20050;-71
2023/02/04 10:00:00;;;;;;;20.20;5.32;;;;;;;7.93;100.00;102204.50;20840903;23;20053;-81
2023/02/04 10:10:02;;;;;;;38.42;15.52;;;;;;;7.81;100.00;102204.22;20790218;28;20072;-81
2023/02/04 10:20:03;;;;;;;36.47;11.93;;;;;;;7.94;100.00;102219.31;20791793;28;20115;-79
2023/02/04 10:30:04;;;;;;;20.33;7.10;;;;;;;8.39;100.00;102217.78;20785883;28;20054;-80
2023/02/04 10:40:05;;;;;;;21.55;6.00;;;;;;;8.21;100.00;102215.59;20786097;28;20076;-80
2023/02/04 10:50:07;;;;;;;20.00;4.00;;;;;;;8.30;100.00;102221.03;20784264;28;20057;-78
2023/02/04 11:00:08;;;;;;;23.98;4.32;;;;;;;8.26;100.00;102213.97;20777093;28;20075;-77
2023/02/04 11:10:09;;;;;;;24.20;4.70;;;;;;;8.34;100.00;102207.22;20778413;28;20054;-77
2023/02/04 11:20:10;;;;;;;20.10;5.15;;;;;;;8.57;100.00;102215.56;20783712;28;20445;-77
2023/02/04 11:30:12;;;;;;;25.75;4.25;;;;;;;8.66;100.00;102217.50;20780756;28;20061;-77
2023/02/04 11:40:13;;;;;;;26.67;5.07;;;;;;;8.57;100.00;102207.72;20777844;28;20049;-76
2023/02/04 11:50:14;;;;;;;21.23;4.30;;;;;;;8.59;100.00;102215.63;20774227;28;20240;-76
2023/02/04 12:00:16;;;;;;;21.45;3.70;;;;;;;8.63;100.00;102220.06;20772554;28;20052;-77
2023/02/04 12:10:18;;;;;;;18.25;4.10;;;;;;;8.72;100.00;102201.97;20775573;28;20054;-76
2023/02/04 12:20:19;;;;;;;17.35;3.97;;;;;;;9.05;100.00;102206.09;20775648;28;20452;-76
2023/02/04 12:30:21;;;;;;;11.27;3.25;;;;;;;8.75;100.00;102202.03;20773067;28;20560;-77
2023/02/04 12:40:22;;;;;;;12.57;3.05;;;;;;;8.82;100.00;102203.94;20775519;28;20099;-76
2023/02/04 12:50:24;;;;;;;15.63;2.85;;;;;;;9.08;100.00;102201.81;20776839;28;20053;-77
2023/02/04 13:00:26;;;;;;;13.95;2.97;;;;;;;9.50;100.00;102203.47;20770129;28;20041;-76
2023/02/04 13:10:27;;;;;;;20.77;4.70;;;;;;;9.33;100.00;102212.72;20774356;28;20061;-76
2023/02/04 13:20:29;;;;;;;19.42;3.78;;;;;;;9.10;99.85;102212.28;20768054;28;20046;-76
2023/02/04 13:30:30;;;;;;;10.07;3.15;;;;;;;9.18;100.00;102215.94;20771719;28;20046;-77
2023/02/04 13:40:31;;;;;;;16.10;3.13;;;;;;;9.29;100.00;102208.28;20766055;28;20136;-75
2023/02/04 13:50:32;;;;;;;11.70;2.58;;;;;;;9.18;100.00;102213.31;20770892;28;20049;-77
2023/02/04 14:00:34;;;;;;;16.95;3.63;;;;;;;9.19;96.68;102212.47;20765522;28;20054;-76
2023/02/04 14:10:36;;;;;;;11.68;2.75;;;;;;;9.02;99.84;102211.28;20767748;28;20049;-78
2023/02/04 14:20:39;;;;;;;16.15;3.40;;;;;;;9.54;100.00;102225.31;20776089;28;20052;-80
2023/02/04 14:30:40;;;;;;;19.92;5.32;;;;;;;9.23;100.00;102235.19;20767498;28;20060;-82
2023/02/04 14:40:41;;;;;;;15.80;4.00;;;;;;;8.90;98.90;102235.41;20779571;28;20441;-79
2023/02/04 14:50:45;;;;;;;21.00;3.70;;;;;;;8.83;100.00;102244.84;20779505;28;20073;-81
2023/02/04 15:00:47;;;;;;;17.60;3.88;;;;;;;8.65;100.00;102236.63;20780111;28;20321;-79
2023/02/04 15:10:48;;;;;;;16.85;3.92;;;;;;;8.58;100.00;102233.00;20776217;28;20555;-74
2023/02/04 15:20:49;;;;;;;14.48;3.97;;;;;;;8.56;100.00;102233.81;20775922;28;20151;-74
2023/02/04 15:30:51;;;;;;;13.73;3.05;;;;;;;8.65;100.00;102234.00;20772319;28;20413;-77
2023/02/04 15:40:52;;;;;;;15.25;4.18;;;;;;;8.43;100.00;102243.09;20775834;28;20107;-77
2023/02/04 15:50:53;;;;;;;12.27;4.10;;;;;;;8.13;100.00;102249.34;20770633;28;20548;-76
2023/02/04 16:00:54;;;;;;;18.02;6.15;;;;;;;8.05;100.00;102247.38;20770315;28;20059;-77
2023/02/04 16:10:56;;;;;;;20.60;5.15;;;;;;;7.74;100.00;102254.44;20770876;28;20053;-76
2023/02/04 16:20:57;;;;;;;20.98;9.30;;;;;;;7.42;100.00;102272.72;20770453;28;21507;-77
2023/02/04 16:30:58;;;;;;;16.70;4.00;;;;;;;6.76;100.00;102290.81;20769867;28;20065;-76
2023/02/04 16:40:59;;;;;;;15.20;4.18;;;;;;;6.39;100.00;102307.88;20769348;28;20056;-76
2023/02/04 16:51:01;;;;;;;15.77;4.10;;;;;;;6.07;100.00;102313.75;20769770;28;20081;-76
2023/02/04 17:01:03;;;;;;;13.70;3.75;;;;;;;5.74;100.00;102316.03;20767833;28;20154;-76
2023/02/04 17:21:25;;;;;;;21.52;7.68;;;;;;;5.21;100.00;102321.09;20765806;28;20079;-76
2023/02/04 17:31:26;;;;;;;26.17;10.45;;;;;;;5.07;100.00;102332.66;20764917;28;20095;-76
2023/02/04 17:41:27;;;;;;;27.02;10.85;;;;;;;4.99;100.00;102344.50;20759767;28;20627;-76
2023/02/04 17:51:30;;;;;;;48.42;23.42;;;;;;;4.81;100.00;102339.47;20766473;28;20060;-76
2023/02/04 18:01:31;;;;;;;36.58;15.13;;;;;;;4.63;100.00;102339.63;20761669;28;20058;-77
2023/02/04 18:11:33;;;;;;;25.30;10.10;;;;;;;4.46;100.00;102343.28;20780875;28;20046;-77
2023/02/04 18:21:35;;;;;;;35.50;18.73;;;;;;;4.25;100.00;102348.44;20777163;28;20053;-77
2023/02/04 18:31:36;;;;;;;48.53;21.27;;;;;;;4.02;100.00;102347.47;20772840;28;20049;-77
2023/02/04 18:41:40;;;;;;;24.23;9.02;;;;;;;3.74;100.00;102366.19;20776150;28;20543;-77
2023/02/04 18:51:41;;;;;;;24.20;9.00;;;;;;;3.52;100.00;102365.22;20769316;28;20111;-78
2023/02/04 19:01:42;;;;;;;24.48;8.63;;;;;;;3.44;100.00;102392.47;20771345;28;20378;-77
2023/02/04 19:11:43;;;;;;;24.35;7.70;;;;;;;3.30;100.00;102386.66;20771421;28;20355;-77
2023/02/04 19:21:45;;;;;;;39.67;17.75;;;;;;;3.24;100.00;102383.78;20778102;28;20308;-77
2023/02/04 19:31:47;;;;;;;22.38;8.85;;;;;;;3.15;100.00;102388.53;20776066;28;20091;-77
2023/02/04 19:41:49;;;;;;;22.92;8.50;;;;;;;3.21;100.00;102387.94;20792996;23;20067;-73
2023/02/04 19:51:50;;;;;;;21.02;8.52;;;;;;;3.27;100.00;102389.13;20789453;28;20073;-74
2023/02/04 20:01:52;;;;;;;26.98;9.43;;;;;;;3.23;100.00;102386.31;20783306;28;20080;-73
2023/02/04 20:11:55;;;;;;;24.52;7.80;;;;;;;3.20;100.00;102381.88;20776988;28;20053;-74
2023/02/04 20:22:12;;;;;;;27.70;9.73;;;;;;;3.18;100.00;102388.69;20785019;28;20141;-75
2023/02/04 20:32:27;;;;;;;19.33;8.18;;;;;;;3.14;100.00;102391.94;20755339;28;20057;-74
2023/02/04 20:43:07;;;;;;;30.13;7.82;;;;;;;3.12;100.00;102393.59;20777897;28;20041;-73
2023/02/04 20:53:23;;;;;;;20.30;8.15;;;;;;;3.21;100.00;102404.38;20771536;28;20136;-73
2023/02/04 21:03:24;;;;;;;21.27;7.50;;;;;;;3.18;100.00;102419.75;20769072;28;20049;-74
2023/02/04 21:13:26;;;;;;;25.67;8.00;;;;;;;3.18;100.00;102430.09;20770650;28;20137;-73
2023/02/04 21:23:27;;;;;;;29.90;11.95;;;;;;;3.06;100.00;102430.41;20764024;28;21411;-73
2023/02/04 21:33:29;;;;;;;46.00;21.23;;;;;;;3.03;100.00;102439.75;20773886;28;20140;-73
2023/02/04 21:43:30;;;;;;;22.52;7.88;;;;;;;2.97;100.00;102436.84;20777306;28;20050;-72
2023/02/04 21:53:31;;;;;;;21.13;6.93;;;;;;;2.96;100.00;102437.66;20794774;28;20050;-73
2023/02/04 22:03:33;;;;;;;22.15;7.95;;;;;;;3.01;100.00;102428.41;20788733;28;20050;-72
2023/02/04 22:13:34;;;;;;;23.95;8.07;;;;;;;3.00;100.00;102424.94;20795618;28;20145;-71
2023/02/04 22:23:35;;;;;;;25.60;9.32;;;;;;;2.86;100.00;102423.41;20797256;28;20200;-72
2023/02/04 22:33:36;;;;;;;18.80;7.85;;;;;;;2.82;100.00;102416.28;20809006;28;20053;-74
2023/02/04 22:43:38;;;;;;;29.67;8.63;;;;;;;2.63;100.00;102417.09;20793654;28;20135;-74
2023/02/04 22:53:39;;;;;;;23.70;9.50;;;;;;;2.48;100.00;102413.78;20787064;28;20577;-73
2023/02/04 23:03:40;;;;;;;22.20;9.25;;;;;;;2.18;100.00;102414.00;20775306;28;20131;-73
2023/02/04 23:13:42;;;;;;;27.73;9.63;;;;;;;2.10;100.00;102437.69;20785011;28;20708;-72
2023/02/04 23:23:43;;;;;;;22.05;8.70;;;;;;;1.89;100.00;102427.13;20779432;28;20049;-73
2023/02/04 23:33:44;;;;;;;22.95;9.32;;;;;;;1.76;100.00;102423.91;20771875;28;20444;-73
2023/02/04 23:43:45;;;;;;;21.23;9.02;;;;;;;1.65;100.00;102435.38;20774969;28;20684;-74
2023/02/04 23:53:47;;;;;;;22.45;9.25;;;;;;;1.65;100.00;102435.38;20772227;28;20050;-73
